sensor_id;sensor_type;location;lat;lon;timestamp;P1;durP1;ratioP1;P2;durP2;ratioP2
67049;SDS011;53955;52.442;13.284;2023-03-01T00:01:47;15.90;;;7.23;;
67049;SDS011;53955;52.442;13.284;2023-03-01T00:04:13;14.07;;;7.30;;
67049;SDS011;53955;52.442;13.284;2023-03-01T00:06:43;12.37;;;6.70;;
67049;SDS011;53955;52.442;13.284;2023-03-01T00:09:11;13.03;;;6.67;;
67049;SDS011;53955;52.442;13.284;2023-03-01T00:11:37;13.10;;;6.90;;
67049;SDS011;53955;52.442;13.284;2023-03-01T00:14:04;14.70;;;6.67;;
67049;SDS011;53955;52.442;13.284;2023-03-01T00:16:32;14.17;;;7.77;;
67049;SDS011;53955;52.442;13.284;2023-03-01T00:19:03;16.33;;;6.87;;
67049;SDS011;53955;52.442;13.284;2023-03-01T00:21:30;12.73;;;6.67;;
67049;SDS011;53955;52.442;13.284;2023-03-01T00:23:58;13.57;;;6.97;;
67049;SDS011;53955;52.442;13.284;2023-03-01T00:26:25;12.93;;;7.10;;
67049;SDS011;53955;52.442;13.284;2023-03-01T00:28:52;14.10;;;6.43;;
67049;SDS011;53955;52.442;13.284;2023-03-01T00:31:20;12.53;;;6.80;;
67049;SDS011;53955;52.442;13.284;2023-03-01T00:33:51;13.30;;;6.03;;
67049;SDS011;53955;52.442;13.284;2023-03-01T00:36:18;12.17;;;6.30;;
67049;SDS011;53955;52.442;13.284;2023-03-01T00:38:45;15.90;;;6.87;;
67049;SDS011;53955;52.442;13.284;2023-03-01T00:41:14;16.20;;;6.47;;
67049;SDS011;53955;52.442;13.284;2023-03-01T00:43:42;13.37;;;6.63;;
67049;SDS011;53955;52.442;13.284;2023-03-01T00:46:09;13.17;;;6.90;;
67049;SDS011;53955;52.442;13.284;2023-03-01T00:48:38;12.50;;;6.70;;
67049;SDS011;53955;52.442;13.284;2023-03-01T00:51:06;14.57;;;6.93;;
67049;SDS011;53955;52.442;13.284;2023-03-01T00:53:33;14.37;;;7.33;;
67049;SDS011;53955;52.442;13.284;2023-03-01T00:56:00;12.60;;;7.10;;
67049;SDS011;53955;52.442;13.284;2023-03-01T00:58:28;10.60;;;6.73;;
67049;SDS011;53955;52.442;13.284;2023-03-01T01:00:55;13.07;;;6.60;;
67049;SDS011;53955;52.442;13.284;2023-03-01T01:03:22;10.77;;;6.47;;
67049;SDS011;53955;52.442;13.284;2023-03-01T01:05:49;14.90;;;6.60;;
67049;SDS011;53955;52.442;13.284;2023-03-01T01:08:16;13.70;;;6.23;;
67049;SDS011;53955;52.442;13.284;2023-03-01T01:10:43;17.13;;;7.60;;
67049;SDS011;53955;52.442;13.284;2023-03-01T01:13:10;11.90;;;7.00;;
67049;SDS011;53955;52.442;13.284;2023-03-01T01:15:38;16.25;;;7.25;;
67049;SDS011;53955;52.442;13.284;2023-03-01T01:18:05;16.10;;;7.30;;
67049;SDS011;53955;52.442;13.284;2023-03-01T01:20:32;15.70;;;7.90;;
67049;SDS011;53955;52.442;13.284;2023-03-01T01:23:01;13.17;;;7.13;;
67049;SDS011;53955;52.442;13.284;2023-03-01T01:25:27;16.20;;;7.53;;
67049;SDS011;53955;52.442;13.284;2023-03-01T01:27:54;15.60;;;7.43;;
67049;SDS011;53955;52.442;13.284;2023-03-01T01:30:20;15.40;;;8.10;;
67049;SDS011;53955;52.442;13.284;2023-03-01T01:32:48;16.63;;;8.00;;
67049;SDS011;53955;52.442;13.284;2023-03-01T01:35:15;16.60;;;7.53;;
67049;SDS011;53955;52.442;13.284;2023-03-01T01:37:42;14.60;;;8.10;;
67049;SDS011;53955;52.442;13.284;2023-03-01T01:40:09;11.97;;;7.20;;
67049;SDS011;53955;52.442;13.284;2023-03-01T01:42:36;14.73;;;8.00;;
67049;SDS011;53955;52.442;13.284;2023-03-01T01:47:55;14.10;;;7.47;;
67049;SDS011;53955;52.442;13.284;2023-03-01T01:50:25;18.43;;;8.07;;
67049;SDS011;53955;52.442;13.284;2023-03-01T01:52:53;17.03;;;8.13;;
67049;SDS011;53955;52.442;13.284;2023-03-01T01:55:21;15.17;;;9.77;;
67049;SDS011;53955;52.442;13.284;2023-03-01T01:57:50;15.90;;;9.07;;
67049;SDS011;53955;52.442;13.284;2023-03-01T02:00:20;16.30;;;8.20;;
67049;SDS011;53955;52.442;13.284;2023-03-01T02:02:52;14.60;;;8.43;;
67049;SDS011;53955;52.442;13.284;2023-03-01T02:05:26;17.43;;;8.63;;
67049;SDS011;53955;52.442;13.284;2023-03-01T02:07:57;17.47;;;9.03;;
67049;SDS011;53955;52.442;13.284;2023-03-01T02:10:25;18.57;;;9.47;;
67049;SDS011;53955;52.442;13.284;2023-03-01T02:12:53;15.80;;;8.80;;
67049;SDS011;53955;52.442;13.284;2023-03-01T02:15:21;16.70;;;8.70;;
67049;SDS011;53955;52.442;13.284;2023-03-01T02:17:49;16.30;;;8.77;;
67049;SDS011;53955;52.442;13.284;2023-03-01T02:20:18;16.17;;;8.53;;
67049;SDS011;53955;52.442;13.284;2023-03-01T02:22:52;17.00;;;8.73;;
67049;SDS011;53955;52.442;13.284;2023-03-01T02:25:24;16.77;;;8.73;;
67049;SDS011;53955;52.442;13.284;2023-03-01T02:27:54;18.23;;;9.27;;
67049;SDS011;53955;52.442;13.284;2023-03-01T02:30:30;17.83;;;8.10;;
67049;SDS011;53955;52.442;13.284;2023-03-01T02:32:58;21.43;;;8.80;;
67049;SDS011;53955;52.442;13.284;2023-03-01T02:35:29;16.80;;;8.50;;
67049;SDS011;53955;52.442;13.284;2023-03-01T02:37:59;16.43;;;8.63;;
67049;SDS011;53955;52.442;13.284;2023-03-01T02:40:27;18.60;;;8.50;;
67049;SDS011;53955;52.442;13.284;2023-03-01T02:42:57;14.43;;;7.70;;
67049;SDS011;53955;52.442;13.284;2023-03-01T02:45:25;15.53;;;8.27;;
67049;SDS011;53955;52.442;13.284;2023-03-01T02:47:54;15.87;;;8.40;;
67049;SDS011;53955;52.442;13.284;2023-03-01T02:50:31;21.47;;;8.93;;
67049;SDS011;53955;52.442;13.284;2023-03-01T02:53:12;17.50;;;8.50;;
67049;SDS011;53955;52.442;13.284;2023-03-01T02:55:42;14.07;;;7.67;;
67049;SDS011;53955;52.442;13.284;2023-03-01T02:58:09;14.43;;;7.83;;
67049;SDS011;53955;52.442;13.284;2023-03-01T03:00:36;13.97;;;7.60;;
67049;SDS011;53955;52.442;13.284;2023-03-01T03:03:13;17.00;;;8.07;;
67049;SDS011;53955;52.442;13.284;2023-03-01T03:08:07;15.35;;;8.40;;
67049;SDS011;53955;52.442;13.284;2023-03-01T03:40:28;14.23;;;8.50;;
67049;SDS011;53955;52.442;13.284;2023-03-01T03:42:56;17.83;;;8.33;;
67049;SDS011;53955;52.442;13.284;2023-03-01T03:45:22;12.00;;;7.17;;
67049;SDS011;53955;52.442;13.284;2023-03-01T03:47:49;16.90;;;8.30;;
67049;SDS011;53955;52.442;13.284;2023-03-01T03:50:16;17.63;;;8.33;;
67049;SDS011;53955;52.442;13.284;2023-03-01T03:52:43;13.20;;;7.27;;
67049;SDS011;53955;52.442;13.284;2023-03-01T03:55:12;15.40;;;7.93;;
67049;SDS011;53955;52.442;13.284;2023-03-01T03:57:39;13.83;;;7.83;;
67049;SDS011;53955;52.442;13.284;2023-03-01T04:00:08;16.90;;;8.90;;
67049;SDS011;53955;52.442;13.284;2023-03-01T04:02:37;13.73;;;8.30;;
67049;SDS011;53955;52.442;13.284;2023-03-01T04:05:05;16.23;;;7.63;;
67049;SDS011;53955;52.442;13.284;2023-03-01T04:07:32;16.00;;;8.37;;
67049;SDS011;53955;52.442;13.284;2023-03-01T04:10:00;13.50;;;8.00;;
67049;SDS011;53955;52.442;13.284;2023-03-01T04:12:27;15.43;;;8.33;;
67049;SDS011;53955;52.442;13.284;2023-03-01T04:14:54;19.20;;;8.60;;
67049;SDS011;53955;52.442;13.284;2023-03-01T04:17:20;16.50;;;8.80;;
67049;SDS011;53955;52.442;13.284;2023-03-01T04:19:47;16.17;;;8.13;;
67049;SDS011;53955;52.442;13.284;2023-03-01T04:22:14;16.13;;;8.67;;
67049;SDS011;53955;52.442;13.284;2023-03-01T04:24:42;16.77;;;9.23;;
67049;SDS011;53955;52.442;13.284;2023-03-01T04:27:10;17.93;;;9.17;;
67049;SDS011;53955;52.442;13.284;2023-03-01T04:29:37;14.03;;;7.60;;
67049;SDS011;53955;52.442;13.284;2023-03-01T04:32:04;17.87;;;9.10;;
67049;SDS011;53955;52.442;13.284;2023-03-01T04:34:30;18.00;;;7.87;;
67049;SDS011;53955;52.442;13.284;2023-03-01T04:36:57;15.23;;;8.03;;
67049;SDS011;53955;52.442;13.284;2023-03-01T04:39:23;18.60;;;8.83;;
67049;SDS011;53955;52.442;13.284;2023-03-01T04:41:50;17.53;;;9.10;;
67049;SDS011;53955;52.442;13.284;2023-03-01T04:44:18;18.27;;;8.77;;
67049;SDS011;53955;52.442;13.284;2023-03-01T04:46:45;15.07;;;8.07;;
67049;SDS011;53955;52.442;13.284;2023-03-01T04:49:15;15.50;;;8.70;;
67049;SDS011;53955;52.442;13.284;2023-03-01T04:51:41;16.10;;;8.50;;
67049;SDS011;53955;52.442;13.284;2023-03-01T04:54:08;15.87;;;9.40;;
67049;SDS011;53955;52.442;13.284;2023-03-01T04:56:35;17.73;;;9.73;;
67049;SDS011;53955;52.442;13.284;2023-03-01T04:59:02;14.53;;;8.30;;
67049;SDS011;53955;52.442;13.284;2023-03-01T05:01:31;16.23;;;8.40;;
67049;SDS011;53955;52.442;13.284;2023-03-01T05:04:00;13.97;;;7.80;;
67049;SDS011;53955;52.442;13.284;2023-03-01T05:06:28;15.23;;;8.10;;
67049;SDS011;53955;52.442;13.284;2023-03-01T05:08:54;16.80;;;8.43;;
67049;SDS011;53955;52.442;13.284;2023-03-01T05:11:21;14.43;;;8.57;;
67049;SDS011;53955;52.442;13.284;2023-03-01T05:13:47;16.33;;;8.80;;
67049;SDS011;53955;52.442;13.284;2023-03-01T05:16:19;15.57;;;8.77;;
67049;SDS011;53955;52.442;13.284;2023-03-01T05:18:47;15.43;;;8.83;;
67049;SDS011;53955;52.442;13.284;2023-03-01T05:21:15;15.43;;;7.93;;
67049;SDS011;53955;52.442;13.284;2023-03-01T05:23:42;17.93;;;8.53;;
67049;SDS011;53955;52.442;13.284;2023-03-01T05:26:09;15.73;;;9.10;;
67049;SDS011;53955;52.442;13.284;2023-03-01T05:28:37;16.17;;;9.27;;
67049;SDS011;53955;52.442;13.284;2023-03-01T05:31:04;15.20;;;8.33;;
67049;SDS011;53955;52.442;13.284;2023-03-01T05:33:34;17.10;;;8.90;;
67049;SDS011;53955;52.442;13.284;2023-03-01T05:36:03;14.60;;;8.60;;
67049;SDS011;53955;52.442;13.284;2023-03-01T05:38:31;17.50;;;8.83;;
67049;SDS011;53955;52.442;13.284;2023-03-01T05:40:57;13.97;;;8.60;;
67049;SDS011;53955;52.442;13.284;2023-03-01T05:43:24;17.93;;;8.83;;
67049;SDS011;53955;52.442;13.284;2023-03-01T05:45:51;15.77;;;9.00;;
67049;SDS011;53955;52.442;13.284;2023-03-01T05:48:18;16.67;;;8.73;;
67049;SDS011;53955;52.442;13.284;2023-03-01T05:50:45;17.57;;;9.20;;
67049;SDS011;53955;52.442;13.284;2023-03-01T05:53:14;15.20;;;8.70;;
67049;SDS011;53955;52.442;13.284;2023-03-01T05:55:42;17.97;;;8.33;;
67049;SDS011;53955;52.442;13.284;2023-03-01T05:58:11;15.07;;;8.77;;
67049;SDS011;53955;52.442;13.284;2023-03-01T06:00:40;19.40;;;10.17;;
67049;SDS011;53955;52.442;13.284;2023-03-01T06:03:09;15.17;;;9.77;;
67049;SDS011;53955;52.442;13.284;2023-03-01T06:05:36;18.43;;;8.63;;
67049;SDS011;53955;52.442;13.284;2023-03-01T06:08:03;21.93;;;9.83;;
67049;SDS011;53955;52.442;13.284;2023-03-01T06:10:32;19.07;;;9.53;;
67049;SDS011;53955;52.442;13.284;2023-03-01T06:12:58;23.97;;;11.97;;
67049;SDS011;53955;52.442;13.284;2023-03-01T06:15:25;25.67;;;12.10;;
67049;SDS011;53955;52.442;13.284;2023-03-01T06:17:53;24.70;;;11.50;;
67049;SDS011;53955;52.442;13.284;2023-03-01T06:20:22;29.50;;;11.97;;
67049;SDS011;53955;52.442;13.284;2023-03-01T06:22:50;22.40;;;11.00;;
67049;SDS011;53955;52.442;13.284;2023-03-01T06:25:18;20.97;;;11.07;;
67049;SDS011;53955;52.442;13.284;2023-03-01T06:27:47;20.63;;;9.87;;
67049;SDS011;53955;52.442;13.284;2023-03-01T06:30:15;19.10;;;11.03;;
67049;SDS011;53955;52.442;13.284;2023-03-01T06:32:43;20.70;;;11.20;;
67049;SDS011;53955;52.442;13.284;2023-03-01T06:35:10;24.53;;;10.63;;
67049;SDS011;53955;52.442;13.284;2023-03-01T06:45:01;17.33;;;9.23;;
67049;SDS011;53955;52.442;13.284;2023-03-01T06:47:27;19.63;;;9.63;;
67049;SDS011;53955;52.442;13.284;2023-03-01T06:54:47;16.63;;;9.40;;
67049;SDS011;53955;52.442;13.284;2023-03-01T06:57:14;13.73;;;8.83;;
67049;SDS011;53955;52.442;13.284;2023-03-01T06:59:40;15.80;;;9.10;;
67049;SDS011;53955;52.442;13.284;2023-03-01T07:04:37;16.53;;;9.27;;
67049;SDS011;53955;52.442;13.284;2023-03-01T07:07:04;16.10;;;9.60;;
67049;SDS011;53955;52.442;13.284;2023-03-01T07:09:30;16.30;;;8.90;;
67049;SDS011;53955;52.442;13.284;2023-03-01T07:11:57;15.65;;;9.02;;
67049;SDS011;53955;52.442;13.284;2023-03-01T07:14:24;13.07;;;8.57;;
67049;SDS011;53955;52.442;13.284;2023-03-01T07:16:51;15.82;;;9.10;;
67049;SDS011;53955;52.442;13.284;2023-03-01T07:19:19;21.85;;;10.25;;
67049;SDS011;53955;52.442;13.284;2023-03-01T07:21:46;14.57;;;8.93;;
67049;SDS011;53955;52.442;13.284;2023-03-01T07:24:13;31.00;;;10.30;;
67049;SDS011;53955;52.442;13.284;2023-03-01T07:26:39;22.55;;;10.65;;
67049;SDS011;53955;52.442;13.284;2023-03-01T07:29:07;17.42;;;10.52;;
67049;SDS011;53955;52.442;13.284;2023-03-01T07:31:35;21.55;;;10.25;;
67049;SDS011;53955;52.442;13.284;2023-03-01T07:34:02;22.15;;;10.48;;
67049;SDS011;53955;52.442;13.284;2023-03-01T07:36:30;18.45;;;10.20;;
67049;SDS011;53955;52.442;13.284;2023-03-01T07:38:57;20.85;;;11.27;;
67049;SDS011;53955;52.442;13.284;2023-03-01T07:41:23;17.90;;;10.57;;
67049;SDS011;53955;52.442;13.284;2023-03-01T07:43:50;20.38;;;10.80;;
67049;SDS011;53955;52.442;13.284;2023-03-01T07:46:17;19.85;;;10.68;;
67049;SDS011;53955;52.442;13.284;2023-03-01T07:48:44;14.18;;;10.20;;
67049;SDS011;53955;52.442;13.284;2023-03-01T07:51:10;15.68;;;10.63;;
67049;SDS011;53955;52.442;13.284;2023-03-01T07:53:38;15.85;;;9.75;;
67049;SDS011;53955;52.442;13.284;2023-03-01T07:56:06;15.20;;;10.18;;
67049;SDS011;53955;52.442;13.284;2023-03-01T07:58:34;15.13;;;9.45;;
67049;SDS011;53955;52.442;13.284;2023-03-01T08:01:01;13.77;;;9.18;;
67049;SDS011;53955;52.442;13.284;2023-03-01T08:03:28;12.02;;;8.63;;
67049;SDS011;53955;52.442;13.284;2023-03-01T08:05:55;20.48;;;9.07;;
67049;SDS011;53955;52.442;13.284;2023-03-01T08:08:21;11.77;;;8.23;;
67049;SDS011;53955;52.442;13.284;2023-03-01T08:10:49;13.52;;;8.15;;
67049;SDS011;53955;52.442;13.284;2023-03-01T08:13:16;12.57;;;8.38;;
67049;SDS011;53955;52.442;13.284;2023-03-01T08:15:47;11.80;;;7.63;;
67049;SDS011;53955;52.442;13.284;2023-03-01T08:18:13;15.32;;;7.75;;
67049;SDS011;53955;52.442;13.284;2023-03-01T08:20:40;12.55;;;7.38;;
67049;SDS011;53955;52.442;13.284;2023-03-01T08:23:06;11.98;;;7.60;;
67049;SDS011;53955;52.442;13.284;2023-03-01T08:25:33;9.95;;;6.45;;
67049;SDS011;53955;52.442;13.284;2023-03-01T08:28:01;9.90;;;6.88;;
67049;SDS011;53955;52.442;13.284;2023-03-01T08:30:28;10.30;;;6.95;;
67049;SDS011;53955;52.442;13.284;2023-03-01T08:32:54;10.38;;;7.20;;
67049;SDS011;53955;52.442;13.284;2023-03-01T08:35:21;10.65;;;6.80;;
67049;SDS011;53955;52.442;13.284;2023-03-01T08:37:48;10.23;;;7.13;;
67049;SDS011;53955;52.442;13.284;2023-03-01T08:40:14;10.57;;;6.57;;
67049;SDS011;53955;52.442;13.284;2023-03-01T08:42:41;10.23;;;6.35;;
67049;SDS011;53955;52.442;13.284;2023-03-01T08:45:10;9.57;;;6.65;;
67049;SDS011;53955;52.442;13.284;2023-03-01T08:47:37;12.35;;;6.65;;
67049;SDS011;53955;52.442;13.284;2023-03-01T08:52:31;11.65;;;5.80;;
67049;SDS011;53955;52.442;13.284;2023-03-01T08:54:58;8.80;;;6.15;;
67049;SDS011;53955;52.442;13.284;2023-03-01T08:57:26;9.90;;;4.90;;
67049;SDS011;53955;52.442;13.284;2023-03-01T08:59:53;10.13;;;5.70;;
67049;SDS011;53955;52.442;13.284;2023-03-01T09:02:22;9.82;;;5.00;;
67049;SDS011;53955;52.442;13.284;2023-03-01T09:04:49;7.88;;;4.35;;
67049;SDS011;53955;52.442;13.284;2023-03-01T09:07:15;7.90;;;4.78;;
67049;SDS011;53955;52.442;13.284;2023-03-01T09:09:42;8.30;;;4.97;;
67049;SDS011;53955;52.442;13.284;2023-03-01T09:12:08;8.45;;;4.88;;
67049;SDS011;53955;52.442;13.284;2023-03-01T09:14:35;7.72;;;5.10;;
67049;SDS011;53955;52.442;13.284;2023-03-01T09:19:31;7.15;;;4.68;;
67049;SDS011;53955;52.442;13.284;2023-03-01T09:21:58;8.02;;;4.93;;
67049;SDS011;53955;52.442;13.284;2023-03-01T09:24:24;8.73;;;5.18;;
67049;SDS011;53955;52.442;13.284;2023-03-01T09:26:52;8.70;;;4.40;;
67049;SDS011;53955;52.442;13.284;2023-03-01T09:29:20;7.30;;;4.88;;
67049;SDS011;53955;52.442;13.284;2023-03-01T09:31:46;6.97;;;4.30;;
67049;SDS011;53955;52.442;13.284;2023-03-01T09:34:13;7.72;;;3.90;;
67049;SDS011;53955;52.442;13.284;2023-03-01T09:36:42;8.13;;;4.28;;
67049;SDS011;53955;52.442;13.284;2023-03-01T09:39:09;6.60;;;3.97;;
67049;SDS011;53955;52.442;13.284;2023-03-01T09:41:42;7.20;;;3.80;;
67049;SDS011;53955;52.442;13.284;2023-03-01T09:44:13;8.77;;;4.20;;
67049;SDS011;53955;52.442;13.284;2023-03-01T09:46:46;8.10;;;5.05;;
67049;SDS011;53955;52.442;13.284;2023-03-01T09:49:14;8.27;;;4.00;;
67049;SDS011;53955;52.442;13.284;2023-03-01T09:51:47;9.00;;;4.57;;
67049;SDS011;53955;52.442;13.284;2023-03-01T09:54:21;6.77;;;4.50;;
67049;SDS011;53955;52.442;13.284;2023-03-01T09:56:52;8.55;;;4.30;;
67049;SDS011;53955;52.442;13.284;2023-03-01T09:59:26;9.07;;;5.17;;
67049;SDS011;53955;52.442;13.284;2023-03-01T10:09:41;7.90;;;4.83;;
67049;SDS011;53955;52.442;13.284;2023-03-01T10:12:11;10.77;;;5.07;;
67049;SDS011;53955;52.442;13.284;2023-03-01T10:14:43;9.23;;;4.83;;
67049;SDS011;53955;52.442;13.284;2023-03-01T10:17:19;11.30;;;5.50;;
67049;SDS011;53955;52.442;13.284;2023-03-01T10:34:43;9.63;;;4.47;;
67049;SDS011;53955;52.442;13.284;2023-03-01T10:37:11;8.53;;;4.50;;
67049;SDS011;53955;52.442;13.284;2023-03-01T10:52:21;8.90;;;5.10;;
67049;SDS011;53955;52.442;13.284;2023-03-01T10:54:51;8.33;;;4.87;;
67049;SDS011;53955;52.442;13.284;2023-03-01T10:57:29;8.37;;;4.40;;
67049;SDS011;53955;52.442;13.284;2023-03-01T11:02:49;9.60;;;4.47;;
67049;SDS011;53955;52.442;13.284;2023-03-01T11:05:18;10.57;;;5.00;;
67049;SDS011;53955;52.442;13.284;2023-03-01T11:07:49;8.70;;;4.57;;
67049;SDS011;53955;52.442;13.284;2023-03-01T11:10:18;9.23;;;4.33;;
67049;SDS011;53955;52.442;13.284;2023-03-01T11:12:48;8.47;;;4.50;;
67049;SDS011;53955;52.442;13.284;2023-03-01T11:20:16;9.60;;;4.60;;
67049;SDS011;53955;52.442;13.284;2023-03-01T11:22:50;7.20;;;3.67;;
67049;SDS011;53955;52.442;13.284;2023-03-01T11:25:20;8.50;;;4.57;;
67049;SDS011;53955;52.442;13.284;2023-03-01T11:27:53;8.13;;;4.40;;
67049;SDS011;53955;52.442;13.284;2023-03-01T11:30:22;10.13;;;4.30;;
67049;SDS011;53955;52.442;13.284;2023-03-01T11:32:53;6.83;;;4.33;;
67049;SDS011;53955;52.442;13.284;2023-03-01T11:35:27;10.80;;;4.23;;
67049;SDS011;53955;52.442;13.284;2023-03-01T11:37:59;7.53;;;4.80;;
67049;SDS011;53955;52.442;13.284;2023-03-01T11:40:31;9.70;;;4.70;;
67049;SDS011;53955;52.442;13.284;2023-03-01T11:48:17;12.23;;;5.07;;
67049;SDS011;53955;52.442;13.284;2023-03-01T11:50:56;8.20;;;4.73;;
67049;SDS011;53955;52.442;13.284;2023-03-01T11:53:31;8.97;;;4.23;;
67049;SDS011;53955;52.442;13.284;2023-03-01T11:56:10;8.53;;;4.37;;
67049;SDS011;53955;52.442;13.284;2023-03-01T12:06:44;7.90;;;4.80;;
67049;SDS011;53955;52.442;13.284;2023-03-01T12:09:18;8.03;;;5.40;;
67049;SDS011;53955;52.442;13.284;2023-03-01T12:11:56;8.47;;;5.37;;
67049;SDS011;53955;52.442;13.284;2023-03-01T12:14:53;9.23;;;4.77;;
67049;SDS011;53955;52.442;13.284;2023-03-01T12:17:34;9.53;;;5.07;;
67049;SDS011;53955;52.442;13.284;2023-03-01T12:20:22;10.07;;;5.80;;
67049;SDS011;53955;52.442;13.284;2023-03-01T12:22:59;9.60;;;5.27;;
67049;SDS011;53955;52.442;13.284;2023-03-01T12:25:43;8.60;;;5.33;;
67049;SDS011;53955;52.442;13.284;2023-03-01T12:28:19;8.83;;;5.17;;
67049;SDS011;53955;52.442;13.284;2023-03-01T12:31:20;10.60;;;6.07;;
67049;SDS011;53955;52.442;13.284;2023-03-01T12:34:03;9.23;;;5.23;;
67049;SDS011;53955;52.442;13.284;2023-03-01T12:36:52;8.23;;;5.00;;
67049;SDS011;53955;52.442;13.284;2023-03-01T12:39:43;10.03;;;5.30;;
67049;SDS011;53955;52.442;13.284;2023-03-01T12:42:21;7.77;;;4.90;;
67049;SDS011;53955;52.442;13.284;2023-03-01T12:45:01;12.43;;;5.60;;
67049;SDS011;53955;52.442;13.284;2023-03-01T12:47:48;12.80;;;5.43;;
67049;SDS011;53955;52.442;13.284;2023-03-01T12:50:25;10.13;;;5.17;;
67049;SDS011;53955;52.442;13.284;2023-03-01T12:52:58;7.97;;;4.20;;
67049;SDS011;53955;52.442;13.284;2023-03-01T12:55:26;8.20;;;4.07;;
67049;SDS011;53955;52.442;13.284;2023-03-01T12:57:57;12.17;;;4.50;;
67049;SDS011;53955;52.442;13.284;2023-03-01T13:00:31;7.60;;;4.30;;
67049;SDS011;53955;52.442;13.284;2023-03-01T13:03:09;8.60;;;4.10;;
67049;SDS011;53955;52.442;13.284;2023-03-01T13:05:53;9.63;;;4.20;;
67049;SDS011;53955;52.442;13.284;2023-03-01T13:08:29;11.13;;;4.10;;
67049;SDS011;53955;52.442;13.284;2023-03-01T13:11:00;9.80;;;4.13;;
67049;SDS011;53955;52.442;13.284;2023-03-01T13:13:29;10.07;;;4.60;;
67049;SDS011;53955;52.442;13.284;2023-03-01T13:15:56;6.30;;;3.73;;
67049;SDS011;53955;52.442;13.284;2023-03-01T13:18:28;8.50;;;4.10;;
67049;SDS011;53955;52.442;13.284;2023-03-01T13:21:02;8.20;;;3.57;;
67049;SDS011;53955;52.442;13.284;2023-03-01T13:23:31;9.20;;;3.30;;
67049;SDS011;53955;52.442;13.284;2023-03-01T13:28:38;5.50;;;3.33;;
67049;SDS011;53955;52.442;13.284;2023-03-01T13:37:30;8.43;;;3.83;;
67049;SDS011;53955;52.442;13.284;2023-03-01T13:45:53;5.53;;;3.50;;
67049;SDS011;53955;52.442;13.284;2023-03-01T13:48:21;7.73;;;3.87;;
67049;SDS011;53955;52.442;13.284;2023-03-01T13:50:53;12.50;;;3.50;;
67049;SDS011;53955;52.442;13.284;2023-03-01T13:53:24;8.23;;;3.80;;
67049;SDS011;53955;52.442;13.284;2023-03-01T13:55:55;6.60;;;3.73;;
67049;SDS011;53955;52.442;13.284;2023-03-01T13:58:24;5.90;;;3.70;;
67049;SDS011;53955;52.442;13.284;2023-03-01T14:00:55;7.10;;;3.70;;
67049;SDS011;53955;52.442;13.284;2023-03-01T14:03:23;5.67;;;3.33;;
67049;SDS011;53955;52.442;13.284;2023-03-01T14:08:40;6.77;;;3.30;;
67049;SDS011;53955;52.442;13.284;2023-03-01T14:11:13;10.15;;;3.60;;
67049;SDS011;53955;52.442;13.284;2023-03-01T14:16:32;7.30;;;3.40;;
67049;SDS011;53955;52.442;13.284;2023-03-01T16:15:51;5.60;;;3.10;;
67049;SDS011;53955;52.442;13.284;2023-03-01T16:18:18;5.60;;;3.03;;
67049;SDS011;53955;52.442;13.284;2023-03-01T16:20:45;6.97;;;2.87;;
67049;SDS011;53955;52.442;13.284;2023-03-01T16:23:13;5.63;;;2.83;;
67049;SDS011;53955;52.442;13.284;2023-03-01T16:25:40;6.00;;;3.60;;
67049;SDS011;53955;52.442;13.284;2023-03-01T16:28:07;7.43;;;2.70;;
67049;SDS011;53955;52.442;13.284;2023-03-01T16:30:35;7.03;;;3.20;;
67049;SDS011;53955;52.442;13.284;2023-03-01T16:33:03;5.70;;;3.10;;
67049;SDS011;53955;52.442;13.284;2023-03-01T16:35:33;4.87;;;2.90;;
67049;SDS011;53955;52.442;13.284;2023-03-01T16:38:00;13.80;;;3.50;;
67049;SDS011;53955;52.442;13.284;2023-03-01T16:40:27;4.33;;;2.67;;
67049;SDS011;53955;52.442;13.284;2023-03-01T16:42:55;5.80;;;3.20;;
67049;SDS011;53955;52.442;13.284;2023-03-01T16:45:25;5.80;;;3.10;;
67049;SDS011;53955;52.442;13.284;2023-03-01T16:47:53;5.40;;;2.90;;
67049;SDS011;53955;52.442;13.284;2023-03-01T16:50:19;8.03;;;3.27;;
67049;SDS011;53955;52.442;13.284;2023-03-01T16:52:47;4.60;;;3.07;;
67049;SDS011;53955;52.442;13.284;2023-03-01T16:55:14;5.33;;;3.10;;
67049;SDS011;53955;52.442;13.284;2023-03-01T16:57:40;6.50;;;3.00;;
67049;SDS011;53955;52.442;13.284;2023-03-01T17:00:08;6.30;;;3.10;;
67049;SDS011;53955;52.442;13.284;2023-03-01T17:02:36;7.50;;;3.07;;
67049;SDS011;53955;52.442;13.284;2023-03-01T17:05:03;5.23;;;3.20;;
67049;SDS011;53955;52.442;13.284;2023-03-01T17:07:30;7.63;;;4.00;;
67049;SDS011;53955;52.442;13.284;2023-03-01T17:10:00;4.90;;;3.03;;
67049;SDS011;53955;52.442;13.284;2023-03-01T17:12:27;8.13;;;3.40;;
67049;SDS011;53955;52.442;13.284;2023-03-01T17:14:53;5.47;;;3.30;;
67049;SDS011;53955;52.442;13.284;2023-03-01T17:17:20;5.60;;;3.40;;
67049;SDS011;53955;52.442;13.284;2023-03-01T17:19:47;6.50;;;2.77;;
67049;SDS011;53955;52.442;13.284;2023-03-01T17:22:13;6.10;;;3.30;;
67049;SDS011;53955;52.442;13.284;2023-03-01T17:24:41;6.70;;;3.30;;
67049;SDS011;53955;52.442;13.284;2023-03-01T17:27:10;7.20;;;3.63;;
67049;SDS011;53955;52.442;13.284;2023-03-01T17:29:38;8.43;;;3.80;;
67049;SDS011;53955;52.442;13.284;2023-03-01T17:32:06;7.33;;;3.37;;
67049;SDS011;53955;52.442;13.284;2023-03-01T17:34:33;6.03;;;3.53;;
67049;SDS011;53955;52.442;13.284;2023-03-01T17:37:01;10.17;;;4.53;;
67049;SDS011;53955;52.442;13.284;2023-03-01T17:39:27;8.13;;;3.97;;
67049;SDS011;53955;52.442;13.284;2023-03-01T17:42:00;10.50;;;3.60;;
67049;SDS011;53955;52.442;13.284;2023-03-01T17:44:28;7.87;;;4.10;;
67049;SDS011;53955;52.442;13.284;2023-03-01T17:46:56;9.93;;;4.10;;
67049;SDS011;53955;52.442;13.284;2023-03-01T17:49:22;6.00;;;3.57;;
67049;SDS011;53955;52.442;13.284;2023-03-01T17:51:49;7.50;;;3.50;;
67049;SDS011;53955;52.442;13.284;2023-03-01T17:54:16;8.87;;;4.60;;
67049;SDS011;53955;52.442;13.284;2023-03-01T17:56:42;14.90;;;4.60;;
67049;SDS011;53955;52.442;13.284;2023-03-01T17:59:10;12.70;;;4.77;;
67049;SDS011;53955;52.442;13.284;2023-03-01T18:01:39;10.37;;;4.37;;
67049;SDS011;53955;52.442;13.284;2023-03-01T18:04:07;12.10;;;4.60;;
67049;SDS011;53955;52.442;13.284;2023-03-01T18:06:34;11.23;;;4.70;;
67049;SDS011;53955;52.442;13.284;2023-03-01T18:09:02;9.80;;;4.00;;
67049;SDS011;53955;52.442;13.284;2023-03-01T18:11:29;6.87;;;4.10;;
67049;SDS011;53955;52.442;13.284;2023-03-01T18:13:58;11.20;;;4.30;;
67049;SDS011;53955;52.442;13.284;2023-03-01T18:16:24;9.57;;;4.27;;
67049;SDS011;53955;52.442;13.284;2023-03-01T18:18:54;9.80;;;4.33;;
67049;SDS011;53955;52.442;13.284;2023-03-01T18:21:21;9.70;;;4.20;;
67049;SDS011;53955;52.442;13.284;2023-03-01T18:23:48;9.40;;;4.40;;
67049;SDS011;53955;52.442;13.284;2023-03-01T18:38:41;9.43;;;4.83;;
67049;SDS011;53955;52.442;13.284;2023-03-01T18:41:08;8.10;;;4.77;;
67049;SDS011;53955;52.442;13.284;2023-03-01T18:43:34;13.40;;;4.77;;
67049;SDS011;53955;52.442;13.284;2023-03-01T18:46:01;8.53;;;4.23;;
67049;SDS011;53955;52.442;13.284;2023-03-01T18:48:29;11.50;;;4.50;;
67049;SDS011;53955;52.442;13.284;2023-03-01T18:50:56;13.63;;;5.20;;
67049;SDS011;53955;52.442;13.284;2023-03-01T18:53:24;9.70;;;4.47;;
67049;SDS011;53955;52.442;13.284;2023-03-01T18:55:51;10.33;;;5.00;;
67049;SDS011;53955;52.442;13.284;2023-03-01T18:58:17;9.17;;;5.20;;